Time;durP1;ratioP1;P1;durP2;ratioP2;P2;SDS_P1;SDS_P2;PMS_P1;PMS_P2;Temp;Humidity;BMP_temperature;BMP_pressure;BME280_temperature;BME280_humidity;BME280_pressure;Samples;Min_cycle;Max_cycle;Signal;HPM_P1;HPM_P2
2021/07/02 00:01:37;;;;;;;;;38.50;30.75;;;;;19.34;75.16;101492.41;4943069;28;45919;-76
2021/07/02 00:04:04;;;;;;;;;39.00;32.00;;;;;19.28;75.30;101496.34;4943826;28;45503;-76
2021/07/02 00:06:30;;;;;;;;;35.50;31.25;;;;;19.26;75.10;101502.72;4944126;28;46189;-76
2021/07/02 00:08:55;;;;;;;;;35.25;32.00;;;;;19.21;75.14;101495.06;4944273;28;45617;-76
2021/07/02 00:11:20;;;;;;;;;33.00;30.00;;;;;19.19;75.54;101496.94;4943239;28;45795;-76
2021/07/02 00:13:46;;;;;;;;;42.75;33.75;;;;;19.16;75.61;101498.97;4946349;28;45437;-76
2021/07/02 00:16:11;;;;;;;;;36.00;32.50;;;;;19.13;76.07;101492.03;4944023;28;46309;-76
2021/07/02 00:18:36;;;;;;;;;40.50;31.75;;;;;19.06;75.66;101481.91;4941584;28;45447;-76
2021/07/02 00:21:02;;;;;;;;;34.50;30.75;;;;;19.05;75.73;101491.69;4941372;28;45443;-76
2021/07/02 00:23:27;;;;;;;;;35.75;31.75;;;;;19.02;75.89;101487.44;4944335;28;45484;-76
2021/07/02 00:25:53;;;;;;;;;34.00;30.25;;;;;18.99;75.98;101489.44;4946233;28;46149;-76
2021/07/02 00:28:18;;;;;;;;;35.75;30.00;;;;;18.97;76.27;101492.22;4947623;28;45498;-76
2021/07/02 00:30:43;;;;;;;;;36.75;30.50;;;;;18.92;76.28;101490.81;4947787;28;46440;-76
2021/07/02 00:33:09;;;;;;;;;40.00;34.25;;;;;18.90;76.41;101495.38;4951440;28;45522;-76
2021/07/02 00:35:34;;;;;;;;;32.00;31.50;;;;;18.85;76.97;101490.34;4952140;28;45520;-76
2021/07/02 00:38:00;;;;;;;;;42.25;34.25;;;;;18.83;77.01;101486.06;4953049;28;45365;-76
2021/07/02 00:40:25;;;;;;;;;43.25;32.25;;;;;18.78;76.88;101489.03;4950458;28;45624;-76
2021/07/02 00:42:51;;;;;;;;;39.75;33.00;;;;;18.75;76.91;101490.09;4951097;28;45543;-76
2021/07/02 00:45:16;;;;;;;;;36.00;32.00;;;;;18.72;76.93;101495.63;4951508;28;46197;-76
2021/07/02 00:47:42;;;;;;;;;41.25;33.00;;;;;18.69;76.94;101498.50;4950473;28;45547;-76
2021/07/02 00:50:08;;;;;;;;;39.50;32.75;;;;;18.64;76.97;101491.72;4952183;28;45337;-76
2021/07/02 00:52:33;;;;;;;;;39.00;31.00;;;;;18.63;76.72;101498.84;4954706;28;45430;-76
2021/07/02 00:54:59;;;;;;;;;45.00;34.50;;;;;18.61;76.99;101497.25;4951999;28;45534;-77
2021/07/02 00:57:24;;;;;;;;;38.00;32.50;;;;;18.57;77.37;101498.38;4944245;28;45459;-76
2021/07/02 00:59:50;;;;;;;;;37.25;31.75;;;;;18.52;77.06;101494.19;4942677;28;45503;-76
2021/07/02 01:02:16;;;;;;;;;42.00;34.50;;;;;18.51;77.27;101499.63;4942894;28;45459;-76
2021/07/02 01:04:41;;;;;;;;;39.75;32.25;;;;;18.44;77.36;101488.53;4944567;28;46264;-76
2021/07/02 01:07:07;;;;;;;;;38.50;32.00;;;;;18.45;77.58;101492.03;4941789;28;45371;-76
2021/07/02 01:09:33;;;;;;;;;39.50;33.00;;;;;18.44;77.65;101498.31;4938011;28;45546;-77
2021/07/02 01:11:59;;;;;;;;;41.00;33.50;;;;;18.42;77.31;101497.56;4934465;28;45987;-76
2021/07/02 01:14:25;;;;;;;;;42.50;35.00;;;;;18.40;78.00;101502.97;4933557;28;45455;-76
2021/07/02 01:16:50;;;;;;;;;45.75;34.75;;;;;18.38;78.08;101491.59;4936440;28;45290;-76
2021/07/02 01:19:16;;;;;;;;;43.00;36.00;;;;;18.35;78.16;101490.91;4935431;28;45558;-76
2021/07/02 01:21:42;;;;;;;;;46.50;37.00;;;;;18.32;77.96;101491.97;4935021;28;45640;-76
2021/07/02 01:24:07;;;;;;;;;49.50;37.50;;;;;18.31;77.48;101484.94;4934604;28;46143;-76
2021/07/02 01:26:33;;;;;;;;;39.50;35.00;;;;;18.27;77.95;101491.41;4934821;28;45752;-76
2021/07/02 01:28:59;;;;;;;;;50.00;36.50;;;;;18.26;77.86;101487.03;4935615;28;45861;-76
2021/07/02 01:31:25;;;;;;;;;46.00;36.00;;;;;18.22;78.13;101485.53;4939576;28;45595;-76
2021/07/02 01:33:51;;;;;;;;;44.75;36.25;;;;;18.21;77.55;101494.44;4937984;28;46623;-76
2021/07/02 01:36:19;;;;;;;;;39.25;34.00;;;;;18.16;77.64;101481.44;4938011;28;45311;-76
2021/07/02 01:38:45;;;;;;;;;44.00;34.25;;;;;18.12;77.53;101479.94;4938297;28;45297;-76
2021/07/02 01:41:10;;;;;;;;;44.75;36.25;;;;;18.09;77.65;101477.44;4937227;28;45481;-76
2021/07/02 01:43:35;;;;;;;;;42.00;34.00;;;;;18.06;77.53;101474.97;4939464;28;47097;-76
2021/07/02 01:46:01;;;;;;;;;44.25;35.25;;;;;18.05;77.93;101475.06;4937947;28;45580;-77
2021/07/02 01:48:27;;;;;;;;;45.25;34.75;;;;;18.02;77.56;101481.47;4937992;28;45710;-76
2021/07/02 01:50:52;;;;;;;;;43.50;34.25;;;;;17.98;77.60;101482.59;4938094;28;45369;-76
2021/07/02 01:53:18;;;;;;;;;47.75;37.00;;;;;17.94;78.05;101479.25;4937993;28;46955;-76
2021/07/02 01:55:43;;;;;;;;;45.25;37.50;;;;;17.89;78.06;101478.69;4938965;28;45381;-76
2021/07/02 01:58:09;;;;;;;;;48.00;35.00;;;;;17.88;77.98;101476.97;4937527;28;45515;-76
2021/07/02 02:00:35;;;;;;;;;44.75;37.75;;;;;17.86;78.06;101476.25;4937596;28;45509;-76
2021/07/02 02:03:00;;;;;;;;;46.75;37.25;;;;;17.83;78.26;101478.22;4937668;28;46282;-76
2021/07/02 02:05:25;;;;;;;;;46.25;36.00;;;;;17.81;78.39;101480.13;4936324;28;45596;-76
2021/07/02 02:07:51;;;;;;;;;46.00;37.75;;;;;17.77;78.40;101473.28;4939169;28;45453;-76
2021/07/02 02:10:16;;;;;;;;;48.50;39.00;;;;;17.76;78.54;101476.91;4936925;28;45435;-76
2021/07/02 02:12:42;;;;;;;;;41.75;34.75;;;;;17.74;78.57;101471.66;4937521;28;45469;-76
2021/07/02 02:15:09;;;;;;;;;49.75;42.00;;;;;17.72;78.73;101470.88;4937412;28;45314;-76
2021/07/02 02:17:35;;;;;;;;;52.75;40.25;;;;;17.69;78.80;101465.72;4937930;28;45501;-76
2021/07/02 02:20:01;;;;;;;;;54.00;44.00;;;;;17.66;78.88;101465.94;4937884;28;45420;-76
2021/07/02 02:22:26;;;;;;;;;56.25;42.75;;;;;17.65;78.38;101466.88;4938626;28;45515;-76
2021/07/02 02:24:52;;;;;;;;;54.25;43.25;;;;;17.64;78.79;101467.81;4936681;28;45459;-76
2021/07/02 02:27:17;;;;;;;;;54.75;42.75;;;;;17.63;78.64;101469.63;4937613;28;45462;-76
2021/07/02 02:29:43;;;;;;;;;49.25;40.00;;;;;17.61;78.42;101458.22;4937228;28;45540;-76
2021/07/02 02:32:08;;;;;;;;;51.00;39.75;;;;;17.61;78.48;101468.00;4937217;28;45411;-76
2021/07/02 02:34:34;;;;;;;;;51.50;40.50;;;;;17.58;78.66;101457.56;4938736;28;45592;-76
2021/07/02 02:36:59;;;;;;;;;47.25;39.50;;;;;17.56;79.11;101464.78;4937288;28;45449;-76
2021/07/02 02:39:25;;;;;;;;;51.00;39.00;;;;;17.54;78.47;101464.00;4935935;28;45491;-76
2021/07/02 02:41:50;;;;;;;;;47.00;38.50;;;;;17.51;78.52;101458.88;4935739;28;46120;-76
2021/07/02 02:44:15;;;;;;;;;56.00;41.00;;;;;17.50;78.87;101466.00;4936344;28;45561;-76
2021/07/02 02:46:41;;;;;;;;;51.75;40.75;;;;;17.48;78.86;101460.75;4938999;28;45439;-76
2021/07/02 02:49:06;;;;;;;;;55.75;42.75;;;;;17.43;79.00;101459.34;4937271;28;45464;-76
2021/07/02 02:51:31;;;;;;;;;53.75;42.00;;;;;17.43;78.93;101451.38;4936067;28;45918;-76
2021/07/02 02:53:57;;;;;;;;;51.25;40.75;;;;;17.42;78.67;101458.47;4936252;28;45334;-76
2021/07/02 02:56:22;;;;;;;;;55.25;43.75;;;;;17.42;79.00;101457.63;4937293;28;45495;-76
2021/07/02 02:58:48;;;;;;;;;52.50;42.00;;;;;17.39;78.60;101457.84;4938349;28;48640;-76
2021/07/02 03:01:13;;;;;;;;;51.25;40.25;;;;;17.39;79.03;101449.84;4936714;28;45322;-76
2021/07/02 03:03:38;;;;;;;;;55.25;42.75;;;;;17.36;79.15;101450.88;4936678;28;45511;-76
2021/07/02 03:06:05;;;;;;;;;52.25;40.75;;;;;17.35;79.26;101448.31;4936888;28;45969;-76
2021/07/02 03:08:30;;;;;;;;;53.50;42.50;;;;;17.34;78.85;101446.63;4936599;28;45320;-76
2021/07/02 03:10:56;;;;;;;;;51.25;39.75;;;;;17.34;78.56;101454.59;4936912;28;47310;-76
2021/07/02 03:13:21;;;;;;;;;51.25;39.75;;;;;17.33;78.77;101453.75;4937382;28;45512;-76
2021/07/02 03:15:46;;;;;;;;;51.50;41.75;;;;;17.32;78.68;101449.34;4936790;28;45347;-76
2021/07/02 03:18:12;;;;;;;;;53.25;41.50;;;;;17.28;79.22;101450.50;4936199;28;45356;-76
2021/07/02 03:20:37;;;;;;;;;53.75;44.00;;;;;17.29;78.91;101454.88;4936334;28;46812;-76
2021/07/02 03:23:03;;;;;;;;;55.00;40.50;;;;;17.26;79.42;101454.19;4935978;28;45403;-76
2021/07/02 03:25:28;;;;;;;;;50.25;40.00;;;;;17.24;79.07;101450.78;4936113;28;45565;-75
2021/07/02 03:27:53;;;;;;;;;55.75;42.25;;;;;17.23;79.24;101455.25;4936396;28;45426;-76
2021/07/02 03:30:19;;;;;;;;;52.00;43.25;;;;;17.21;79.02;101449.13;4936747;28;45443;-77
2021/07/02 03:32:44;;;;;;;;;51.00;40.00;;;;;17.21;79.36;101446.47;4935550;28;45413;-76
2021/07/02 03:35:10;;;;;;;;;50.75;40.00;;;;;17.20;79.27;101448.28;4936569;28;47861;-76
2021/07/02 03:37:36;;;;;;;;;46.75;39.25;;;;;17.20;79.21;101447.44;4937669;28;45330;-76
2021/07/02 03:40:05;;;;;;;;;50.75;39.75;;;;;17.17;79.32;101445.84;4935039;28;46253;-76
2021/07/02 03:42:30;;;;;;;;;49.50;39.00;;;;;17.14;79.36;101450.47;4950754;28;45876;-76
2021/07/02 03:44:55;;;;;;;;;51.00;40.00;;;;;17.13;79.34;101452.25;4935916;28;45163;-76
2021/07/02 03:47:21;;;;;;;;;52.50;42.75;;;;;17.12;79.71;101455.00;4936500;28;45391;-76
2021/07/02 03:49:46;;;;;;;;;50.75;40.75;;;;;17.08;79.46;101457.00;4937512;28;45327;-76
2021/07/02 03:52:11;;;;;;;;;51.50;40.00;;;;;17.07;79.20;101457.94;4935079;28;45337;-76
2021/07/02 03:54:37;;;;;;;;;53.33;40.00;;;;;17.05;79.11;101454.50;4935645;28;48451;-76
2021/07/02 03:57:11;;;;;;;;;51.00;40.00;;;;;17.04;79.77;101452.78;4935564;28;53616;-76
2021/07/02 03:59:43;;;;;;;;;51.00;41.75;;;;;17.05;79.69;101454.50;4935608;28;46979;-76
2021/07/02 04:02:12;;;;;;;;;49.50;40.25;;;;;17.05;79.42;101445.69;4934756;28;45913;-77
2021/07/02 04:04:38;;;;;;;;;45.75;37.00;;;;;17.04;79.69;101451.94;4937618;28;45470;-76
2021/07/02 04:07:05;;;;;;;;;47.00;38.75;;;;;17.03;79.48;101456.41;4935276;28;45441;-77
2021/07/02 04:09:31;;;;;;;;;51.00;39.00;;;;;17.02;79.44;101454.69;4933481;28;47293;-77
2021/07/02 04:11:57;;;;;;;;;50.75;39.25;;;;;17.03;79.66;101459.06;4935193;28;45550;-77
2021/07/02 04:14:22;;;;;;;;;47.75;39.50;;;;;17.04;79.79;101462.56;4934217;28;45478;-77
2021/07/02 04:16:48;;;;;;;;;43.75;37.00;;;;;17.03;79.78;101461.72;4937526;28;45293;-76
2021/07/02 04:19:13;;;;;;;;;49.00;40.00;;;;;17.04;79.77;101451.94;4935249;28;46264;-77
2021/07/02 04:21:38;;;;;;;;;47.00;35.75;;;;;17.05;79.86;101464.28;4935194;28;48840;-77
2021/07/02 04:24:04;;;;;;;;;43.75;35.75;;;;;17.08;79.76;101470.25;4934683;28;45475;-76
2021/07/02 04:26:30;;;;;;;;;43.50;36.75;;;;;17.09;80.10;101464.00;4935763;28;45599;-76
2021/07/02 04:28:55;;;;;;;;;43.50;36.00;;;;;17.13;79.81;101467.34;4936664;28;46264;-76
2021/07/02 04:31:20;;;;;;;;;45.50;36.50;;;;;17.17;79.79;101471.50;4935724;28;45364;-77
2021/07/02 04:33:46;;;;;;;;;42.00;33.00;;;;;17.23;79.48;101471.16;4935746;28;45535;-76
2021/07/02 04:36:11;;;;;;;;;47.00;36.50;;;;;17.28;79.54;101461.13;4934774;28;45803;-76
2021/07/02 04:38:37;;;;;;;;;44.75;35.25;;;;;17.35;79.59;101477.56;4935216;28;45959;-76
2021/07/02 04:41:02;;;;;;;;;45.00;38.50;;;;;17.37;79.65;101465.03;4934544;28;45413;-77
2021/07/02 04:43:27;;;;;;;;;41.50;35.50;;;;;17.44;79.55;101466.38;4937038;28;45439;-76
2021/07/02 04:45:53;;;;;;;;;48.00;37.00;;;;;17.50;79.71;101471.31;4935119;28;45517;-76
2021/07/02 04:48:18;;;;;;;;;42.25;34.75;;;;;17.53;79.75;101476.44;4934966;28;52542;-77
2021/07/02 04:50:43;;;;;;;;;43.75;36.00;;;;;17.58;79.80;101481.47;4934366;28;45440;-77
2021/07/02 04:53:09;;;;;;;;;43.75;35.25;;;;;17.66;79.76;101482.72;4935600;28;45503;-76
2021/07/02 04:55:34;;;;;;;;;43.50;35.25;;;;;17.77;79.86;101483.91;4936940;28;45441;-77
2021/07/02 04:57:59;;;;;;;;;43.25;35.50;;;;;17.89;79.43;101484.00;4935045;28;45340;-76
2021/07/02 05:00:26;;;;;;;;;46.75;35.75;;;;;18.00;79.56;101478.03;4934800;28;45463;-77
2021/07/02 05:02:52;;;;;;;;;47.25;36.00;;;;;18.13;79.30;101475.47;4934534;28;45548;-77
2021/07/02 05:05:17;;;;;;;;;45.50;34.75;;;;;18.27;79.14;101478.13;4933172;28;45407;-77
2021/07/02 05:07:43;;;;;;;;;44.00;35.00;;;;;18.46;78.95;101475.13;4936175;28;45273;-77
2021/07/02 05:10:09;;;;;;;;;45.00;36.75;;;;;18.64;78.98;101475.75;4934190;28;45306;-77
2021/07/02 05:12:35;;;;;;;;;41.25;34.50;;;;;18.85;78.43;101477.03;4933364;28;45536;-77
2021/07/02 05:15:00;;;;;;;;;41.75;33.25;;;;;19.04;78.30;101479.31;4934935;28;45468;-76
2021/07/02 05:17:26;;;;;;;;;37.75;33.00;;;;;19.23;77.78;101485.13;4934125;28;46344;-76
2021/07/02 05:19:52;;;;;;;;;34.25;31.50;;;;;19.38;77.33;101472.59;4935458;28;45543;-76
2021/07/02 05:22:19;;;;;;;;;37.75;32.00;;;;;19.55;77.54;101476.75;4935228;28;45487;-76
2021/07/02 05:24:46;;;;;;;;;42.25;33.50;;;;;19.69;77.42;101474.03;4934768;28;45532;-76
2021/07/02 05:27:11;;;;;;;;;44.25;33.75;;;;;19.78;76.39;101469.84;4934278;28;46402;-76
2021/07/02 05:29:37;;;;;;;;;34.25;31.00;;;;;19.83;76.41;101475.72;4936340;28;45714;-76
2021/07/02 05:32:03;;;;;;;;;43.25;33.75;;;;;19.90;75.95;101479.69;4935333;28;45310;-76
2021/07/02 05:34:28;;;;;;;;;39.00;34.25;;;;;19.99;75.90;101470.16;4932687;28;45498;-76
2021/07/02 05:36:54;;;;;;;;;46.50;35.00;;;;;20.10;75.69;101467.59;4932201;28;45610;-76
2021/07/02 05:39:19;;;;;;;;;45.25;35.00;;;;;20.29;75.83;101469.78;4932683;28;45330;-76
2021/07/02 05:41:44;;;;;;;;;41.75;35.00;;;;;20.51;75.75;101471.78;4933984;28;45648;-76
2021/07/02 05:44:10;;;;;;;;;41.00;33.00;;;;;20.77;75.37;101472.53;4934289;28;45354;-76
2021/07/02 05:46:35;;;;;;;;;41.50;34.25;;;;;21.03;74.43;101471.44;4935309;28;46084;-76
2021/07/02 05:49:03;;;;;;;;;40.50;33.50;;;;;21.30;73.74;101473.03;4933430;28;45310;-76
2021/07/02 05:51:28;;;;;;;;;40.25;35.75;;;;;21.79;72.95;101472.75;4932695;28;45530;-76
2021/07/02 05:53:53;;;;;;;;;34.25;30.75;;;;;22.24;72.43;101470.13;4932139;28;45369;-75
2021/07/02 05:56:20;;;;;;;;;37.50;31.50;;;;;22.55;71.31;101475.63;4933640;28;46268;-76
2021/07/02 05:58:45;;;;;;;;;37.00;32.75;;;;;22.67;71.02;101480.84;4931568;28;45385;-76
2021/07/02 06:01:11;;;;;;;;;38.50;32.50;;;;;22.65;70.29;101481.94;4934030;28;45439;-76
2021/07/02 06:03:36;;;;;;;;;36.75;33.25;;;;;22.60;69.88;101473.44;4933880;28;45512;-76
2021/07/02 06:06:01;;;;;;;;;36.50;33.25;;;;;22.63;70.52;101478.56;4933884;28;45298;-76
2021/07/02 06:08:26;;;;;;;;;38.75;33.00;;;;;22.73;69.97;101484.00;4934542;28;45402;-76
2021/07/02 06:10:52;;;;;;;;;35.75;31.75;;;;;22.79;70.16;101476.31;4934643;28;45384;-76
2021/07/02 06:13:17;;;;;;;;;41.25;33.25;;;;;22.82;69.83;101481.44;4934334;28;45491;-76
2021/07/02 06:15:42;;;;;;;;;35.25;29.25;;;;;22.86;69.32;101477.50;4934186;28;46202;-76
2021/07/02 06:18:10;;;;;;;;;37.25;31.25;;;;;22.96;69.39;101477.63;4935911;28;50901;-83
2021/07/02 06:20:36;;;;;;;;;35.00;32.50;;;;;23.06;68.96;101473.19;4937253;28;45351;-77
2021/07/02 06:23:02;;;;;;;;;43.75;32.50;;;;;23.14;68.64;101476.09;4937702;28;45388;-76
2021/07/02 06:25:27;;;;;;;;;37.50;33.50;;;;;23.24;68.67;101472.63;4938771;28;45491;-75
2021/07/02 06:27:53;;;;;;;;;41.75;34.00;;;;;23.41;68.29;101475.56;4937355;28;45602;-75
2021/07/02 06:30:18;;;;;;;;;39.25;34.25;;;;;23.54;67.95;101471.81;4936738;28;45449;-75
2021/07/02 06:32:45;;;;;;;;;40.50;33.75;;;;;23.66;67.55;101471.66;4937468;28;45427;-75
2021/07/02 06:35:10;;;;;;;;;41.25;34.25;;;;;23.79;67.18;101468.75;4937410;28;45347;-75
2021/07/02 06:37:36;;;;;;;;;40.75;35.00;;;;;23.90;67.11;101470.50;4938118;28;45483;-75
2021/07/02 06:40:02;;;;;;;;;40.50;34.75;;;;;23.95;66.55;101474.47;4937549;28;45384;-75
2021/07/02 06:42:27;;;;;;;;;35.25;32.50;;;;;23.87;66.68;101477.00;4936592;28;45508;-75
2021/07/02 06:44:52;;;;;;;;;46.25;34.00;;;;;23.80;66.49;101474.97;4936857;28;45449;-75
2021/07/02 06:47:18;;;;;;;;;39.50;33.75;;;;;23.71;66.27;101471.28;4935538;28;45496;-75
2021/07/02 06:49:43;;;;;;;;;39.00;33.25;;;;;23.71;66.13;101473.94;4934555;28;45381;-75
2021/07/02 06:52:08;;;;;;;;;39.75;33.75;;;;;23.71;66.44;101479.31;4936610;28;45580;-75
2021/07/02 06:54:35;;;;;;;;;48.00;37.25;;;;;23.65;65.89;101478.03;4934661;28;46445;-75
2021/07/02 06:57:03;;;;;;;;;46.50;38.75;;;;;23.56;66.27;101477.94;4936957;28;45329;-75
2021/07/02 06:59:34;;;;;;;;;45.75;38.75;;;;;23.50;66.11;101475.78;4935558;28;45533;-75
2021/07/02 07:02:00;;;;;;;;;46.75;36.50;;;;;23.47;65.50;101482.22;4936287;28;45577;-75
2021/07/02 07:04:29;;;;;;;;;44.25;37.25;;;;;23.48;65.85;101485.75;4934989;28;46203;-75
2021/07/02 07:06:55;;;;;;;;;45.75;35.00;;;;;23.54;66.12;101483.41;4936439;28;46009;-75
2021/07/02 07:09:20;;;;;;;;;40.50;34.50;;;;;23.59;66.27;101477.66;4935783;28;45560;-75
2021/07/02 07:11:45;;;;;;;;;41.50;35.50;;;;;23.68;65.56;101479.56;4935263;28;45456;-75
2021/07/02 07:14:11;;;;;;;;;44.50;35.00;;;;;23.75;65.99;101478.03;4931510;28;46000;-75
2021/07/02 07:16:36;;;;;;;;;48.00;37.25;;;;;23.83;65.20;101483.59;4937800;28;45354;-75
2021/07/02 07:19:01;;;;;;;;;42.25;34.00;;;;;23.86;65.24;101478.00;4936202;28;45484;-74
2021/07/02 07:21:27;;;;;;;;;43.50;36.75;;;;;23.90;64.48;101484.75;4935777;28;45419;-75
2021/07/02 07:23:52;;;;;;;;;38.75;32.75;;;;;24.00;64.61;101475.91;4934908;28;45565;-75
2021/07/02 07:26:18;;;;;;;;;44.25;36.50;;;;;24.10;64.13;101480.34;4939426;28;45520;-75
2021/07/02 07:28:43;;;;;;;;;37.25;32.00;;;;;24.20;63.79;101481.22;4936564;28;45381;-76
2021/07/02 07:31:09;;;;;;;;;38.00;33.25;;;;;24.40;63.50;101482.16;4932609;28;49409;-75
2021/07/02 07:33:38;;;;;;;;;49.00;38.25;;;;;25.17;63.12;101492.19;4935123;28;46128;-75
2021/07/02 07:36:04;;;;;;;;;49.75;39.25;;;;;25.76;61.17;101488.44;4935871;28;45483;-75
2021/07/02 07:38:29;;;;;;;;;36.50;31.50;;;;;26.05;60.77;101490.19;4926746;28;45820;-75
2021/07/02 07:40:55;;;;;;;;;37.75;31.25;;;;;26.78;60.02;101484.78;4936864;28;45455;-75
2021/07/02 07:43:22;;;;;;;;;36.50;30.25;;;;;27.03;58.67;101494.81;4930220;28;46429;-75
2021/07/02 07:45:48;;;;;;;;;46.75;35.00;;;;;27.22;57.30;101488.44;4934177;28;45670;-75
2021/07/02 07:48:13;;;;;;;;;40.00;33.75;;;;;27.25;56.95;101488.16;4935268;28;45297;-75
2021/07/02 07:50:43;;;;;;;;;35.75;32.00;;;;;27.21;57.46;101492.16;4934331;28;45540;-75
2021/07/02 07:53:10;;;;;;;;;36.25;32.00;;;;;27.17;56.95;101489.94;4935054;28;46502;-75
2021/07/02 07:55:35;;;;;;;;;38.00;32.50;;;;;27.37;57.02;101483.34;4936733;28;45372;-74
2021/07/02 07:58:00;;;;;;;;;34.75;30.00;;;;;28.76;56.39;101493.00;4934643;28;45491;-74
2021/07/02 08:00:26;;;;;;;;;29.25;25.00;;;;;30.14;54.02;101493.97;4935695;28;45421;-75
2021/07/02 08:02:52;;;;;;;;;29.75;26.50;;;;;30.72;51.54;101494.53;4934924;28;46148;-75
2021/07/02 08:05:18;;;;;;;;;28.00;26.25;;;;;30.65;50.03;101497.09;4936297;28;45496;-74
2021/07/02 08:07:44;;;;;;;;;25.50;22.25;;;;;30.46;49.20;101498.38;4932777;28;45301;-74
2021/07/02 08:10:17;;;;;;;;;26.00;22.75;;;;;31.75;49.20;101497.59;4935123;28;45696;-75
2021/07/02 08:12:42;;;;;;;;;25.50;24.25;;;;;32.78;47.45;101491.19;4931298;28;46518;-74
2021/07/02 08:15:10;;;;;;;;;26.25;25.00;;;;;33.82;46.03;101505.09;4935839;28;45229;-75
2021/07/02 08:17:36;;;;;;;;;26.25;23.75;;;;;35.31;45.74;101499.75;4935818;28;45493;-75
2021/07/02 08:20:04;;;;;;;;;34.00;30.00;;;;;37.02;43.01;101502.19;4935971;28;45610;-74
2021/07/02 08:22:29;;;;;;;;;27.25;25.00;;;;;38.86;39.94;101505.88;4934586;28;46315;-75
2021/07/02 08:24:55;;;;;;;;;27.25;25.25;;;;;39.38;38.44;101501.44;4935887;28;45434;-75
2021/07/02 08:27:23;;;;;;;;;24.25;20.50;;;;;39.03;37.47;101511.50;4936203;28;45419;-75
2021/07/02 08:29:48;;;;;;;;;27.50;24.50;;;;;38.86;36.31;101520.44;4936238;28;45449;-74
2021/07/02 08:32:14;;;;;;;;;25.75;24.25;;;;;39.62;36.86;101513.28;4935426;28;46303;-74
2021/07/02 08:34:39;;;;;;;;;22.75;20.50;;;;;41.52;34.82;101518.66;4936157;28;45554;-74
2021/07/02 08:37:04;;;;;;;;;28.50;25.75;;;;;43.72;33.09;101522.69;4935161;28;45408;-74
2021/07/02 08:39:30;;;;;;;;;26.00;22.75;;;;;45.66;30.96;101514.75;4935472;28;45732;-74
2021/07/02 08:41:55;;;;;;;;;22.50;20.25;;;;;47.38;29.30;101513.16;4935483;28;46449;-74
2021/07/02 08:44:21;;;;;;;;;23.25;19.50;;;;;48.78;28.02;101521.13;4935593;28;45274;-74
2021/07/02 08:46:47;;;;;;;;;23.75;21.00;;;;;49.44;24.61;101521.94;4936469;28;45545;-74
2021/07/02 08:49:13;;;;;;;;;23.50;22.25;;;;;48.94;24.97;101519.72;4936018;28;45565;-75
2021/07/02 08:51:39;;;;;;;;;22.75;20.25;;;;;48.88;24.98;101518.16;4934975;28;47154;-74
2021/07/02 08:54:04;;;;;;;;;20.75;19.50;;;;;50.04;24.29;101516.25;4935601;28;45504;-73
2021/07/02 08:56:30;;;;;;;;;20.75;20.00;;;;;51.34;23.26;101512.53;4934402;28;45274;-75
2021/07/02 08:58:56;;;;;;;;;18.25;17.50;;;;;52.46;21.03;101513.97;4936219;28;45383;-75
2021/07/02 09:01:48;;;;;;;;;21.50;18.50;;;;;53.05;21.13;101525.50;4935047;28;46063;-75
2021/07/02 09:04:23;;;;;;;;;19.00;18.50;;;;;53.65;19.83;101510.38;4935254;28;45462;-74
2021/07/02 09:07:04;;;;;;;;;17.75;17.25;;;;;54.31;18.86;101509.81;4934447;28;45994;-74
2021/07/02 09:09:54;;;;;;;;;17.75;17.75;;;;;55.00;18.89;101513.94;4934740;28;45316;-74
2021/07/02 09:12:21;;;;;;;;;17.50;15.00;;;;;55.06;17.64;101511.72;4934752;28;47037;-75
2021/07/02 09:15:09;;;;;;;;;51.00;41.75;;;;;55.14;17.62;101516.47;4935151;28;45434;-74
2021/07/02 09:17:53;;;;;;;;;15.00;15.00;;;;;55.31;17.42;101519.06;4921840;28;45524;-74
2021/07/02 09:20:19;;;;;;;;;20.50;20.50;;;;;54.90;17.07;101514.41;4928268;28;45547;-75
2021/07/02 09:22:56;;;;;;;;;13.75;13.75;;;;;54.22;17.66;101512.69;4949610;28;46279;-74
2021/07/02 09:25:24;;;;;;;;;14.00;14.00;;;;;53.22;18.19;101507.78;4932172;28;45535;-74
2021/07/02 09:27:51;;;;;;;;;17.00;13.50;;;;;52.26;18.75;101498.63;4935352;28;45460;-74
2021/07/02 09:30:19;;;;;;;;;13.00;11.00;;;;;50.97;18.54;101496.19;4933364;28;45298;-74
2021/07/02 09:32:48;;;;;;;;;17.00;13.00;;;;;50.17;18.77;101495.00;4934377;28;45538;-74
2021/07/02 09:35:16;;;;;;;;;16.00;14.75;;;;;49.03;19.67;101495.56;4934444;28;45534;-74
2021/07/02 09:37:46;;;;;;;;;17.00;15.25;;;;;48.27;19.91;101492.00;4935679;28;45482;-74
2021/07/02 09:40:21;;;;;;;;;14.50;13.00;;;;;47.81;20.61;101487.03;4934272;28;45582;-74
2021/07/02 09:42:57;;;;;;;;;10.25;10.25;;;;;47.29;20.57;101485.94;4935103;28;46076;-74
2021/07/02 09:45:23;;;;;;;;;16.50;16.00;;;;;46.65;21.55;101475.94;4934860;28;45664;-75
2021/07/02 09:47:48;;;;;;;;;15.00;14.00;;;;;46.06;21.74;101488.78;4935393;28;45534;-74
2021/07/02 09:50:13;;;;;;;;;17.75;16.75;;;;;45.57;21.76;101477.56;4936054;28;45526;-74
2021/07/02 09:52:55;;;;;;;;;14.75;14.75;;;;;45.12;22.13;101478.47;4937982;28;45491;-74
2021/07/02 09:55:23;;;;;;;;;17.00;15.50;;;;;44.91;22.13;101480.41;4937749;28;45312;-75
2021/07/02 09:57:50;;;;;;;;;26.25;23.25;;;;;44.40;22.29;101480.34;4938367;28;45424;-74
2021/07/02 10:00:16;;;;;;;;;16.00;15.25;;;;;44.22;22.22;101474.22;4937828;28;45483;-75
2021/07/02 10:02:53;;;;;;;;;16.00;14.25;;;;;44.37;22.57;101483.63;4935862;28;46585;-74
2021/07/02 10:05:18;;;;;;;;;14.75;13.50;;;;;44.56;22.38;101473.69;4924001;28;45480;-74
2021/07/02 10:08:02;;;;;;;;;14.00;14.00;;;;;44.64;22.12;101477.88;4938907;28;45325;-74
2021/07/02 10:10:28;;;;;;;;;15.75;14.75;;;;;44.77;22.31;101472.63;4938276;28;45378;-74
2021/07/02 10:12:55;;;;;;;;;15.00;13.75;;;;;44.40;22.46;101467.31;4937100;28;45319;-75
2021/07/02 10:15:22;;;;;;;;;14.50;13.50;;;;;43.90;22.70;101468.78;4936898;28;45339;-74
2021/07/02 10:17:48;;;;;;;;;16.25;13.50;;;;;43.37;23.13;101461.56;4937744;28;47347;-74
2021/07/02 10:20:14;;;;;;;;;14.00;13.50;;;;;42.73;23.29;101465.22;4936385;28;45650;-75
2021/07/02 10:22:44;;;;;;;;;14.00;13.25;;;;;41.95;23.66;101472.88;4939117;28;45412;-74
2021/07/02 10:25:11;;;;;;;;;12.25;12.25;;;;;41.20;24.93;101463.25;4937391;28;45421;-76
2021/07/02 10:27:39;;;;;;;;;15.50;11.50;;;;;40.48;25.00;101474.91;4935647;28;45548;-75
2021/07/02 10:30:05;;;;;;;;;12.25;10.75;;;;;39.57;25.80;101468.28;4937486;28;47679;-75
2021/07/02 10:32:32;;;;;;;;;15.00;13.00;;;;;38.80;26.65;101466.44;4937116;28;45693;-74
2021/07/02 10:34:58;;;;;;;;;13.00;12.25;;;;;38.11;26.83;101460.41;4938156;28;45396;-75
2021/07/02 10:37:25;;;;;;;;;14.25;13.25;;;;;37.66;27.48;101462.59;4938138;28;45406;-75
2021/07/02 10:39:51;;;;;;;;;14.75;12.00;;;;;37.47;28.28;101467.19;4937258;28;45531;-74
2021/07/02 10:42:16;;;;;;;;;11.75;11.50;;;;;37.05;29.20;101461.44;4936975;28;46387;-75
2021/07/02 10:44:53;;;;;;;;;13.50;13.50;;;;;36.35;28.97;101466.09;4937237;28;45303;-75
2021/07/02 10:47:20;;;;;;;;;13.25;11.00;;;;;35.74;29.26;101467.34;4922207;28;45787;-74
2021/07/02 10:49:45;;;;;;;;;13.25;12.00;;;;;35.21;29.92;101464.66;4935063;28;45401;-74
2021/07/02 10:52:28;;;;;;;;;12.75;12.00;;;;;34.63;30.43;101461.66;4936387;28;45526;-74
2021/07/02 10:54:54;;;;;;;;;13.25;11.25;;;;;34.22;32.18;101464.44;4936593;28;45921;-74
2021/07/02 10:57:25;;;;;;;;;13.00;12.00;;;;;33.91;32.84;101452.09;4936348;28;45510;-74
2021/07/02 10:59:53;;;;;;;;;13.00;13.00;;;;;33.66;33.58;101459.06;4936737;28;45338;-74
2021/07/02 11:02:23;;;;;;;;;12.50;11.75;;;;;33.50;33.83;101461.06;4926855;28;45411;-74
2021/07/02 11:04:50;;;;;;;;;13.00;12.50;;;;;33.36;33.54;101455.69;4934755;28;45488;-73
2021/07/02 11:07:15;;;;;;;;;14.25;12.25;;;;;33.24;34.15;101453.50;4935416;28;45440;-73